createdAt,value
2023-10-20T00:02:18.195Z,22.25
2023-10-20T00:05:25.138Z,23.08
2023-10-20T00:08:35.493Z,27.10
2023-10-20T00:11:55.037Z,23.15
2023-10-20T00:15:00.087Z,24.98
2023-10-20T00:18:06.075Z,27.27
2023-10-20T00:21:10.730Z,24.83
2023-10-20T00:24:15.208Z,25.17
2023-10-20T00:27:19.936Z,27.65
2023-10-20T00:30:24.702Z,25.80
2023-10-20T00:33:30.163Z,28.27
2023-10-20T00:36:35.965Z,28.55
2023-10-20T00:39:40.709Z,27.38
2023-10-20T00:42:45.553Z,29.08
2023-10-20T00:45:50.153Z,28.73
2023-10-20T00:48:54.902Z,28.73
2023-10-20T00:52:01.024Z,28.45
2023-10-20T00:55:09.904Z,27.33
2023-10-20T00:58:15.257Z,28.00
2023-10-20T01:01:19.915Z,28.25
2023-10-20T01:04:24.487Z,31.55
2023-10-20T01:07:28.901Z,28.60
2023-10-20T01:10:33.318Z,28.42
2023-10-20T01:13:38.643Z,30.13
2023-10-20T01:16:43.341Z,28.88
2023-10-20T01:19:48.230Z,27.58
2023-10-20T01:22:52.771Z,29.90
2023-10-20T01:25:57.795Z,29.27
2023-10-20T01:29:06.771Z,28.58
2023-10-20T01:32:12.255Z,29.67
2023-10-20T01:35:17.218Z,27.60
2023-10-20T01:38:23.748Z,27.45
2023-10-20T01:41:28.228Z,28.27
2023-10-20T01:44:32.946Z,33.22
2023-10-20T01:47:38.122Z,30.20
2023-10-20T01:50:42.500Z,31.65
2023-10-20T01:53:47.008Z,30.42
2023-10-20T01:56:51.768Z,27.27
2023-10-20T01:59:56.450Z,29.35
2023-10-20T02:03:01.552Z,31.45
2023-10-20T02:06:06.576Z,28.52
2023-10-20T02:09:11.743Z,30.27
2023-10-20T02:12:16.034Z,28.55
2023-10-20T02:15:20.834Z,32.05
2023-10-20T02:18:25.901Z,28.45
2023-10-20T02:21:30.707Z,30.75
2023-10-20T02:24:35.131Z,28.67
2023-10-20T02:27:43.445Z,33.80
2023-10-20T02:30:47.993Z,34.72
2023-10-20T02:33:53.474Z,33.33
2023-10-20T02:36:58.052Z,33.03
2023-10-20T02:40:05.935Z,35.92
2023-10-20T02:43:10.743Z,31.10
2023-10-20T02:46:16.455Z,31.85
2023-10-20T02:49:21.342Z,34.63
2023-10-20T02:52:26.861Z,30.20
2023-10-20T02:55:32.982Z,30.73
2023-10-20T02:58:38.078Z,34.83
2023-10-20T03:01:42.791Z,33.60
2023-10-20T03:04:47.977Z,35.38
2023-10-20T03:07:52.798Z,32.80
2023-10-20T03:10:58.870Z,33.95
2023-10-20T03:14:03.602Z,31.15
2023-10-20T03:17:08.525Z,33.45
2023-10-20T03:20:18.459Z,30.00
2023-10-20T03:23:23.185Z,32.97
2023-10-20T03:26:28.034Z,30.90
2023-10-20T03:29:32.956Z,30.48
2023-10-20T03:32:37.500Z,33.50
2023-10-20T03:35:42.337Z,33.90
2023-10-20T03:38:47.117Z,27.60
2023-10-20T03:41:51.860Z,31.85
2023-10-20T03:44:56.550Z,34.28
2023-10-20T03:48:01.530Z,29.90
2023-10-20T03:51:12.134Z,33.00
2023-10-20T03:54:20.466Z,32.22
2023-10-20T03:57:25.712Z,29.23
2023-10-20T04:00:31.007Z,31.02
2023-10-20T04:03:36.071Z,30.25
2023-10-20T04:06:40.919Z,33.33
2023-10-20T04:09:45.867Z,35.75
2023-10-20T04:12:50.744Z,32.33
2023-10-20T04:15:55.544Z,32.90
2023-10-20T04:19:00.178Z,32.20
2023-10-20T04:22:13.581Z,32.65
2023-10-20T04:25:23.623Z,34.25
2023-10-20T04:28:34.470Z,32.90
2023-10-20T04:31:59.111Z,32.00
2023-10-20T04:35:22.876Z,30.83
2023-10-20T04:39:02.668Z,31.85
2023-10-20T04:42:27.748Z,30.50
2023-10-20T04:45:32.501Z,32.60
2023-10-20T04:48:55.647Z,33.42
2023-10-20T04:52:07.705Z,33.17
2023-10-20T04:55:30.080Z,33.65
2023-10-20T04:58:52.909Z,29.20
2023-10-20T05:02:02.425Z,27.55
2023-10-20T05:05:28.084Z,25.67
2023-10-20T05:08:32.581Z,23.95
2023-10-20T05:11:37.197Z,26.10
2023-10-20T05:14:41.864Z,24.63
2023-10-20T05:17:51.559Z,24.55
2023-10-20T05:20:56.564Z,21.98
2023-10-20T05:24:05.002Z,22.25
2023-10-20T05:27:09.816Z,23.55
2023-10-20T05:30:14.542Z,22.55
2023-10-20T05:33:19.064Z,23.15
2023-10-20T05:36:23.397Z,22.02
2023-10-20T05:39:28.256Z,20.75
2023-10-20T05:42:32.965Z,19.75
2023-10-20T05:45:41.600Z,17.60
2023-10-20T05:48:47.706Z,15.98
2023-10-20T05:51:52.867Z,14.95
2023-10-20T05:54:59.208Z,16.00
2023-10-20T05:58:03.955Z,16.35
2023-10-20T06:01:10.701Z,15.98
2023-10-20T06:04:15.280Z,15.82
2023-10-20T06:07:20.049Z,16.98
2023-10-20T06:10:25.049Z,18.38
2023-10-20T06:13:35.682Z,17.25
2023-10-20T06:16:40.233Z,19.55
2023-10-20T06:19:47.782Z,20.67
2023-10-20T06:22:52.676Z,20.80
2023-10-20T06:25:59.192Z,21.80
2023-10-20T06:29:04.152Z,22.52
2023-10-20T06:32:11.507Z,21.63
2023-10-20T06:35:18.051Z,25.67
2023-10-20T06:38:44.893Z,25.95
2023-10-20T06:41:49.650Z,24.58
2023-10-20T06:44:57.857Z,26.17
2023-10-20T06:48:02.571Z,25.13
2023-10-20T06:51:07.513Z,25.40
2023-10-20T06:54:12.162Z,26.20
2023-10-20T06:57:17.420Z,24.95
2023-10-20T07:00:22.125Z,21.13
2023-10-20T07:03:27.025Z,21.90
2023-10-20T07:06:31.577Z,21.50
2023-10-20T07:09:36.400Z,20.83
2023-10-20T07:12:41.114Z,20.20
2023-10-20T07:15:46.010Z,20.02
2023-10-20T07:18:50.527Z,18.02
2023-10-20T07:21:55.271Z,17.80
2023-10-20T07:24:59.700Z,17.70
2023-10-20T07:28:04.567Z,15.65
2023-10-20T07:31:17.384Z,16.73
2023-10-20T07:34:22.322Z,14.95
2023-10-20T07:37:27.139Z,14.43
2023-10-20T07:40:36.371Z,14.75
2023-10-20T07:43:41.919Z,12.82
2023-10-20T07:46:46.990Z,13.30
2023-10-20T07:49:52.658Z,12.77
2023-10-20T07:52:57.152Z,12.93
2023-10-20T07:56:02.240Z,12.15
2023-10-20T07:59:08.861Z,13.98
2023-10-20T08:02:14.161Z,11.35
2023-10-20T08:05:19.736Z,10.75
2023-10-20T08:08:24.992Z,11.07
2023-10-20T08:11:29.728Z,9.35
2023-10-20T08:14:35.225Z,9.95
2023-10-20T08:17:40.389Z,8.27
2023-10-20T08:20:44.979Z,7.75
2023-10-20T08:23:49.403Z,7.78
2023-10-20T08:26:54.863Z,6.93
2023-10-20T08:29:59.658Z,6.47
2023-10-20T08:33:05.075Z,6.90
2023-10-20T08:36:15.949Z,6.82
2023-10-20T08:39:23.662Z,5.70
2023-10-20T08:42:31.189Z,5.18
2023-10-20T08:45:37.372Z,5.20
2023-10-20T08:48:48.704Z,5.25
2023-10-20T08:52:06.926Z,4.93
2023-10-20T08:55:29.707Z,4.70
2023-10-20T08:58:40.028Z,4.57
2023-10-20T09:01:50.103Z,4.50
2023-10-20T09:05:25.649Z,4.05
2023-10-20T09:08:56.581Z,3.70
2023-10-20T09:12:02.864Z,3.90
2023-10-20T09:15:12.437Z,4.57
2023-10-20T09:18:55.279Z,3.33
2023-10-20T09:22:05.380Z,3.40
2023-10-20T09:25:15.142Z,3.40
2023-10-20T09:28:34.422Z,3.63
2023-10-20T09:31:40.376Z,3.38
2023-10-20T09:34:45.426Z,2.72
2023-10-20T09:37:55.441Z,3.20
2023-10-20T09:41:13.765Z,2.70
2023-10-20T09:44:45.088Z,3.10
2023-10-20T09:47:53.512Z,2.90
2023-10-20T09:50:59.314Z,2.50
2023-10-20T09:57:28.069Z,2.55
2023-10-20T10:00:36.029Z,2.13
2023-10-20T10:03:42.301Z,2.00
2023-10-20T10:06:50.166Z,2.28
2023-10-20T10:09:56.224Z,1.83
2023-10-20T10:13:06.026Z,1.98
2023-10-20T10:16:14.876Z,2.13
2023-10-20T10:19:20.015Z,2.38
2023-10-20T10:22:31.054Z,2.35
2023-10-20T10:25:41.653Z,1.90
2023-10-20T10:28:50.725Z,1.90
2023-10-20T10:32:08.961Z,2.10
2023-10-20T10:35:18.555Z,2.20
2023-10-20T10:38:28.435Z,2.35
2023-10-20T10:41:35.551Z,2.22
2023-10-20T10:44:41.097Z,2.35
2023-10-20T10:47:47.723Z,2.03
2023-10-20T10:50:52.805Z,2.03
2023-10-20T10:53:58.185Z,2.30
2023-10-20T10:57:04.988Z,2.13
2023-10-20T11:00:13.841Z,2.00
2023-10-20T11:03:22.106Z,2.28
2023-10-20T11:06:28.018Z,2.22
2023-10-20T11:09:36.899Z,2.00
2023-10-20T11:12:50.967Z,1.80
2023-10-20T11:15:55.924Z,2.00
2023-10-20T11:19:02.835Z,1.77
2023-10-20T11:22:18.745Z,1.90
2023-10-20T11:25:25.750Z,1.70
2023-10-20T11:28:31.088Z,1.80
2023-10-20T11:31:36.641Z,1.95
2023-10-20T11:34:44.848Z,1.80
2023-10-20T11:37:53.164Z,1.90
2023-10-20T11:40:57.982Z,1.60
2023-10-20T11:44:03.198Z,1.70
2023-10-20T11:47:07.879Z,1.60
2023-10-20T11:50:12.572Z,1.60
2023-10-20T11:53:18.059Z,1.63
2023-10-20T11:56:22.441Z,1.60
2023-10-20T11:59:27.167Z,1.60
2023-10-20T12:02:32.650Z,1.65
2023-10-20T12:05:41.236Z,1.40
2023-10-20T12:08:46.211Z,1.40
2023-10-20T12:11:51.711Z,1.30
2023-10-20T12:14:56.491Z,1.20
2023-10-20T12:18:02.048Z,1.38
2023-10-20T12:21:06.577Z,1.70
2023-10-20T12:24:11.509Z,1.80
2023-10-20T12:27:16.367Z,1.33
2023-10-20T12:30:21.543Z,1.80
2023-10-20T12:33:28.070Z,1.67
2023-10-20T12:36:35.120Z,1.60
2023-10-20T12:39:41.656Z,1.73
2023-10-20T12:42:46.577Z,1.58
2023-10-20T12:45:51.519Z,1.25
2023-10-20T12:48:56.552Z,1.42
2023-10-20T12:52:01.541Z,1.30
2023-10-20T12:55:07.067Z,1.30
2023-10-20T12:58:11.877Z,1.67
2023-10-20T13:01:17.228Z,1.40
2023-10-20T13:04:22.959Z,1.50
2023-10-20T13:07:27.733Z,1.42
2023-10-20T13:10:37.354Z,1.20
2023-10-20T13:13:45.122Z,1.20
2023-10-20T13:16:54.052Z,0.93
2023-10-20T13:20:09.161Z,0.98
2023-10-20T13:23:40.225Z,1.05
2023-10-20T13:26:46.057Z,0.90
2023-10-20T13:30:21.564Z,1.10
2023-10-20T13:33:26.812Z,1.30
2023-10-20T13:36:36.244Z,1.20
2023-10-20T13:39:48.315Z,1.60
2023-10-20T13:42:58.373Z,1.20
2023-10-20T13:46:07.250Z,1.25
2023-10-20T13:49:15.519Z,1.60
2023-10-20T13:52:27.287Z,1.65
2023-10-20T13:55:36.232Z,1.40
2023-10-20T13:58:45.047Z,1.45
2023-10-20T14:01:54.389Z,1.58
2023-10-20T14:04:59.361Z,1.70
2023-10-20T14:08:04.573Z,1.58
2023-10-20T14:11:09.634Z,1.50
2023-10-20T14:14:15.211Z,1.42
2023-10-20T14:17:19.989Z,1.73
2023-10-20T14:20:25.118Z,1.70
2023-10-20T14:23:32.789Z,1.50
2023-10-20T14:26:37.481Z,1.58
2023-10-20T14:29:42.193Z,1.70
2023-10-20T14:32:46.839Z,1.73
2023-10-20T14:35:51.824Z,1.63
2023-10-20T14:38:56.534Z,1.70
2023-10-20T14:42:01.445Z,1.48
2023-10-20T14:45:07.557Z,1.50
2023-10-20T14:48:12.153Z,1.60
2023-10-20T14:51:17.150Z,1.60
2023-10-20T14:54:22.180Z,1.60
2023-10-20T14:57:27.055Z,1.55
2023-10-20T15:00:32.885Z,1.45
2023-10-20T15:03:37.949Z,1.40
2023-10-20T15:06:42.670Z,1.10
2023-10-20T15:09:47.314Z,1.30
2023-10-20T15:12:52.460Z,1.17
2023-10-20T15:16:10.877Z,1.58
2023-10-20T15:19:16.115Z,1.50
2023-10-20T15:22:20.811Z,1.77
2023-10-20T15:25:25.810Z,1.80
2023-10-20T15:28:31.972Z,1.80
2023-10-20T15:31:37.977Z,1.50
2023-10-20T15:34:43.104Z,1.58
2023-10-20T15:37:48.179Z,1.80
2023-10-20T15:40:52.869Z,1.48
2023-10-20T15:43:57.718Z,1.75
2023-10-20T15:47:03.380Z,1.58
2023-10-20T15:50:09.100Z,1.90
2023-10-20T15:53:14.638Z,2.20
2023-10-20T15:56:19.975Z,2.67
2023-10-20T15:59:25.010Z,2.92
2023-10-20T16:02:29.965Z,3.20
2023-10-20T16:05:35.237Z,2.53
2023-10-20T16:08:40.273Z,2.60
2023-10-20T16:11:45.709Z,2.67
2023-10-20T16:14:53.265Z,2.70
2023-10-20T16:17:59.772Z,2.90
2023-10-20T16:21:04.662Z,2.90
2023-10-20T16:24:09.663Z,2.38
2023-10-20T16:27:18.271Z,2.80
2023-10-20T16:30:25.187Z,2.95
2023-10-20T16:33:30.316Z,3.20
2023-10-20T16:36:35.214Z,3.15
2023-10-20T16:39:41.266Z,2.75
2023-10-20T16:42:45.885Z,3.28
2023-10-20T16:45:51.548Z,2.83
2023-10-20T16:48:57.908Z,2.60
2023-10-20T16:52:03.120Z,2.70
2023-10-20T16:55:08.771Z,3.45
2023-10-20T16:58:13.409Z,2.88
2023-10-20T17:01:19.342Z,3.55
2023-10-20T17:04:25.400Z,4.93
2023-10-20T17:07:30.074Z,5.43
2023-10-20T17:10:40.663Z,4.43
2023-10-20T17:13:45.436Z,4.32
2023-10-20T17:16:50.128Z,4.13
2023-10-20T17:19:55.800Z,4.22
2023-10-20T17:23:00.834Z,4.45
2023-10-20T17:26:07.014Z,5.45
2023-10-20T17:29:11.578Z,4.72
2023-10-20T17:32:17.172Z,6.32
2023-10-20T17:35:22.759Z,7.10
2023-10-20T17:38:27.513Z,6.00
2023-10-20T17:41:35.388Z,5.95
2023-10-20T17:44:39.957Z,6.65
2023-10-20T17:47:44.755Z,6.90
2023-10-20T17:50:49.722Z,7.63
2023-10-20T17:53:54.602Z,7.72
2023-10-20T17:56:59.331Z,7.50
2023-10-20T18:00:07.373Z,7.55
2023-10-20T18:03:20.910Z,7.70
2023-10-20T18:06:27.370Z,8.20
2023-10-20T18:09:32.111Z,11.35
2023-10-20T18:12:36.919Z,11.30
2023-10-20T18:15:42.051Z,11.65
2023-10-20T18:18:49.762Z,10.90
2023-10-20T18:21:54.357Z,11.73
2023-10-20T18:24:59.209Z,12.35
2023-10-20T18:28:04.613Z,13.68
2023-10-20T18:31:17.874Z,13.38
2023-10-20T18:34:22.502Z,10.65
2023-10-20T18:37:27.864Z,11.95
2023-10-20T18:40:36.170Z,12.70
2023-10-20T18:43:42.047Z,14.70
2023-10-20T18:46:47.470Z,12.77
2023-10-20T18:49:51.972Z,13.70
2023-10-20T18:52:57.186Z,13.30
2023-10-20T18:56:02.370Z,12.93
2023-10-20T18:59:07.489Z,12.45
2023-10-20T19:02:12.396Z,11.85
2023-10-20T19:05:17.506Z,13.85
2023-10-20T19:08:22.073Z,13.05
2023-10-20T19:11:26.819Z,12.38
2023-10-20T19:14:31.948Z,12.32
2023-10-20T19:17:37.629Z,12.60
2023-10-20T19:20:42.854Z,12.80
2023-10-20T19:23:47.927Z,12.48
2023-10-20T19:26:52.985Z,11.23
2023-10-20T19:29:57.705Z,10.65
2023-10-20T19:33:02.799Z,11.20
2023-10-20T19:36:10.553Z,10.07
2023-10-20T19:39:16.365Z,8.68
2023-10-20T19:42:22.039Z,9.25
2023-10-20T19:45:26.773Z,11.15
2023-10-20T19:48:31.682Z,10.68
2023-10-20T19:51:36.218Z,8.82
2023-10-20T19:54:40.924Z,10.00
2023-10-20T19:57:45.877Z,9.82
2023-10-20T20:00:51.053Z,9.77
2023-10-20T20:03:56.360Z,10.50
2023-10-20T20:07:01.048Z,8.80
2023-10-20T20:10:06.791Z,8.25
2023-10-20T20:13:11.253Z,9.15
2023-10-20T20:16:18.914Z,8.80
2023-10-20T20:19:23.747Z,9.07
2023-10-20T20:22:30.196Z,8.77
2023-10-20T20:25:35.123Z,8.40
2023-10-20T20:28:41.722Z,9.25
2023-10-20T20:31:46.682Z,10.90
2023-10-20T20:34:51.574Z,9.63
2023-10-20T20:37:56.238Z,9.50
2023-10-20T20:41:06.686Z,8.63
2023-10-20T20:44:12.123Z,8.40
2023-10-20T20:47:16.904Z,8.20
2023-10-20T20:50:32.669Z,7.82
2023-10-20T20:53:38.603Z,7.75
2023-10-20T20:56:43.550Z,8.60
2023-10-20T20:59:51.613Z,7.35
2023-10-20T21:02:56.371Z,7.35
2023-10-20T21:06:02.163Z,6.60
2023-10-20T21:09:07.226Z,7.65
2023-10-20T21:12:12.415Z,7.20
2023-10-20T21:15:17.495Z,7.47
2023-10-20T21:18:22.538Z,8.88
2023-10-20T21:21:27.556Z,8.10
2023-10-20T21:24:33.077Z,7.57
2023-10-20T21:27:37.665Z,7.47
2023-10-20T21:30:43.215Z,7.53
2023-10-20T21:33:48.267Z,8.65
2023-10-20T21:36:52.903Z,8.02
2023-10-20T21:39:57.929Z,7.47
2023-10-20T21:43:02.864Z,8.13
2023-10-20T21:46:08.304Z,6.72
2023-10-20T21:49:13.199Z,7.53
2023-10-20T21:52:18.130Z,6.68
2023-10-20T21:55:23.495Z,6.03
2023-10-20T21:58:29.199Z,6.60
2023-10-20T22:01:33.920Z,6.97
2023-10-20T22:04:38.603Z,6.60
2023-10-20T22:07:43.663Z,6.45
2023-10-20T22:10:48.800Z,6.20
2023-10-20T22:13:53.753Z,5.85
2023-10-20T22:16:58.427Z,6.13
2023-10-20T22:20:04.016Z,6.30
2023-10-20T22:23:08.740Z,5.93
2023-10-20T22:26:13.586Z,5.57
2023-10-20T22:29:18.880Z,6.07
2023-10-20T22:32:23.608Z,6.80
2023-10-20T22:35:28.569Z,6.03
2023-10-20T22:38:33.239Z,6.15
2023-10-20T22:41:45.159Z,5.50
2023-10-20T22:44:52.037Z,5.25
2023-10-20T22:47:58.141Z,6.03
2023-10-20T22:51:05.144Z,5.47
2023-10-20T22:54:15.031Z,5.47
2023-10-20T22:57:26.685Z,6.22
2023-10-20T23:00:36.857Z,5.85
2023-10-20T23:03:45.816Z,6.50
2023-10-20T23:06:56.035Z,7.38
2023-10-20T23:10:01.792Z,7.20
2023-10-20T23:13:06.805Z,7.07
2023-10-20T23:16:12.376Z,6.88
2023-10-20T23:19:18.242Z,6.55
2023-10-20T23:22:22.730Z,7.03
2023-10-20T23:25:27.453Z,7.07
2023-10-20T23:28:32.538Z,5.97
2023-10-20T23:31:37.578Z,6.25
2023-10-20T23:34:42.477Z,5.95
2023-10-20T23:37:47.196Z,6.72
2023-10-20T23:40:52.232Z,5.78
2023-10-20T23:43:57.090Z,6.05
2023-10-20T23:47:01.721Z,6.13
2023-10-20T23:50:07.120Z,5.53
2023-10-20T23:53:12.118Z,5.25
2023-10-20T23:56:17.022Z,5.75
2023-10-20T23:59:21.882Z,6.30
